Airfield :
LOGIN :

Register | Disclaimer

   EN    FR    IT 

 










Legend :    VFR   Marginal VFR   IFR   Intensive IFR   Very Intensive IFR
Visi :
Ceiling :
>= 8 km
>= 3000ft
5 to 8 km
1000 to 3000 ft
1500m to 5 km
500 to 1000 ft
800 to 1500m
200 to 500 ft
< 800m
< 200 ft
Symbols :   Thunderstorms  Fog  Heavy snow  Heavy precipitations  Wind > 20 kt
SIGMETs :     Misc.  Thunderstorms  Icing  Turbulence  Mountain Waves  Volcanic Ashes






- Airport Elevation : 1249 ft


ETSN - Neuburg AB

CURRENT METAR :
  • 291002Z 04003KT 9999 SCT008 SCT050 BKN090 10/07 Q1003 BLU BLU TEMPO GRN

EXPIRED METARs :
  • 290943Z VRB03KT 9000 BKN007 09/07 Q1003 GRN GRN BECMG BLU
  • 290932Z VRB03KT 9000 BKN005 09/07 Q1002 YLO YLO BECMG BLU
  • 290901Z 07004KT 5000 BR BKN003 09/07 Q1002 YLO YLO BECMG BLU
  • 290849Z 05003KT 4200 BR BKN003 09/07 Q1002 YLO YLO BECMG BLU
  • 290829Z 03003KT 3500 BR OVC002 08/07 Q1002 AMB AMB BECMG BLU
  • 290820Z 06002KT 3000 BR OVC001 08/07 Q1002 RED YLO TEMPO RED
  • 290735Z 01002KT 1600 R27/4000U BR BKN001 07/07 Q1002 RED YLO TEMPO RED
  • 290728Z 35002KT 1600 BR BKN001 07/06 Q1002 RED RED BECMG YLO

TAF TAF ETSN
Valid from the 29 at 08:00 until the 29 at 17:00 UTC


290758Z 2908/2917 VRB03KT 3000 BR BKN005 BKN100
TEMPO 2908/2909 VRB03KT 0500 FG BKN001
BECMG 2909/2910 VRB03KT 9000 -RA SCT010 BKN030
TEMPO 2910/2914 12010KT 4000 RA BKN010 BY ETGL



MET'MAP, your aeronautical weather chart ! - Copyright ORBIFLY December 2007 - Disclaimer

ORBIFLY MET'MAP TEAM :

Programming & Development : Alexandra Zaïnal
Original concept : Baudouin d'Aumeries
Technical & hardware support : Manuel Goepfert
Assistance : Marc-Olivier Méhu




SOURCES & CREDITS :

   NOAA